sensor_id;sensor_type;location;lat;lon;timestamp;pressure;altitude;pressure_sealevel;temperature;humidity
36726;BME280;44936;52.086;5.150;2022-10-31T00:01:15;98436.81;;;12.51;100.00
36726;BME280;44936;52.086;5.150;2022-10-31T00:03:41;98438.06;;;12.62;100.00
36726;BME280;44936;52.086;5.150;2022-10-31T00:06:06;98444.25;;;12.82;100.00
36726;BME280;44936;52.086;5.150;2022-10-31T00:08:32;98374.31;;;12.57;100.00
36726;BME280;44936;52.086;5.150;2022-10-31T00:10:58;98389.69;;;12.85;100.00
36726;BME280;44936;52.086;5.150;2022-10-31T00:13:31;98335.38;;;12.65;100.00
36726;BME280;44936;52.086;5.150;2022-10-31T00:15:56;98302.38;;;12.58;100.00
36726;BME280;44936;52.086;5.150;2022-10-31T00:18:26;98302.66;;;12.71;100.00
36726;BME280;44936;52.086;5.150;2022-10-31T00:21:00;98304.00;;;12.80;100.00
36726;BME280;44936;52.086;5.150;2022-10-31T00:23:25;98307.72;;;12.75;100.00
36726;BME280;44936;52.086;5.150;2022-10-31T00:26:03;98267.00;;;12.46;100.00
36726;BME280;44936;52.086;5.150;2022-10-31T00:28:33;98338.34;;;12.76;100.00
36726;BME280;44936;52.086;5.150;2022-10-31T00:31:03;98344.69;;;12.72;100.00
36726;BME280;44936;52.086;5.150;2022-10-31T00:33:34;98331.91;;;12.65;100.00
36726;BME280;44936;52.086;5.150;2022-10-31T00:36:14;98335.72;;;12.58;100.00
36726;BME280;44936;52.086;5.150;2022-10-31T00:38:41;98354.81;;;12.61;100.00
36726;BME280;44936;52.086;5.150;2022-10-31T00:41:14;98345.88;;;12.46;100.00
36726;BME280;44936;52.086;5.150;2022-10-31T00:43:40;98417.41;;;12.73;100.00
36726;BME280;44936;52.086;5.150;2022-10-31T00:48:59;98431.31;;;12.57;100.00
36726;BME280;44936;52.086;5.150;2022-10-31T00:51:44;98428.75;;;12.55;100.00
36726;BME280;44936;52.086;5.150;2022-10-31T00:54:13;98398.09;;;12.34;100.00
36726;BME280;44936;52.086;5.150;2022-10-31T00:56:40;98407.78;;;12.33;100.00
36726;BME280;44936;52.086;5.150;2022-10-31T00:59:12;98468.81;;;12.60;100.00
36726;BME280;44936;52.086;5.150;2022-10-31T01:01:39;98467.25;;;12.56;100.00
36726;BME280;44936;52.086;5.150;2022-10-31T01:04:13;98415.38;;;12.19;100.00
36726;BME280;44936;52.086;5.150;2022-10-31T01:06:40;98465.41;;;12.38;100.00
36726;BME280;44936;52.086;5.150;2022-10-31T01:09:06;98437.38;;;12.16;100.00
36726;BME280;44936;52.086;5.150;2022-10-31T01:11:37;98422.69;;;12.12;100.00
36726;BME280;44936;52.086;5.150;2022-10-31T01:14:06;98412.28;;;12.09;100.00
36726;BME280;44936;52.086;5.150;2022-10-31T01:16:35;98430.25;;;12.20;100.00
36726;BME280;44936;52.086;5.150;2022-10-31T01:19:02;98413.41;;;12.04;100.00
36726;BME280;44936;52.086;5.150;2022-10-31T01:21:33;98442.53;;;12.19;100.00
36726;BME280;44936;52.086;5.150;2022-10-31T01:24:04;98429.50;;;12.16;100.00
36726;BME280;44936;52.086;5.150;2022-10-31T01:26:33;98454.06;;;12.15;100.00
36726;BME280;44936;52.086;5.150;2022-10-31T01:29:14;98447.25;;;12.11;100.00
36726;BME280;44936;52.086;5.150;2022-10-31T01:31:40;98471.59;;;11.95;100.00
36726;BME280;44936;52.086;5.150;2022-10-31T01:34:06;98486.78;;;11.86;100.00
36726;BME280;44936;52.086;5.150;2022-10-31T01:36:37;98498.31;;;11.82;100.00
36726;BME280;44936;52.086;5.150;2022-10-31T01:39:11;98520.47;;;11.75;100.00
36726;BME280;44936;52.086;5.150;2022-10-31T01:41:42;98539.94;;;11.70;100.00
36726;BME280;44936;52.086;5.150;2022-10-31T01:47:07;98571.56;;;11.67;100.00
36726;BME280;44936;52.086;5.150;2022-10-31T01:52:07;98550.91;;;11.57;100.00
36726;BME280;44936;52.086;5.150;2022-10-31T01:54:41;98549.25;;;11.55;100.00
36726;BME280;44936;52.086;5.150;2022-10-31T01:57:12;98575.09;;;11.66;100.00
36726;BME280;44936;52.086;5.150;2022-10-31T01:59:46;98599.09;;;11.80;100.00
36726;BME280;44936;52.086;5.150;2022-10-31T02:02:19;98553.84;;;11.48;100.00
36726;BME280;44936;52.086;5.150;2022-10-31T02:04:49;98545.31;;;11.43;100.00
36726;BME280;44936;52.086;5.150;2022-10-31T02:07:32;98567.56;;;11.56;100.00
36726;BME280;44936;52.086;5.150;2022-10-31T02:10:03;98520.25;;;11.34;100.00
36726;BME280;44936;52.086;5.150;2022-10-31T02:12:35;98511.53;;;11.34;100.00
36726;BME280;44936;52.086;5.150;2022-10-31T02:15:07;98498.28;;;11.37;100.00
36726;BME280;44936;52.086;5.150;2022-10-31T02:17:33;98469.41;;;11.37;100.00
36726;BME280;44936;52.086;5.150;2022-10-31T02:20:28;98431.75;;;11.38;100.00
36726;BME280;44936;52.086;5.150;2022-10-31T02:23:10;98438.97;;;11.55;100.00
36726;BME280;44936;52.086;5.150;2022-10-31T02:31:42;98421.81;;;11.46;100.00
36726;BME280;44936;52.086;5.150;2022-10-31T02:34:34;98379.19;;;11.18;100.00
36726;BME280;44936;52.086;5.150;2022-10-31T02:37:17;98403.88;;;11.12;100.00
36726;BME280;44936;52.086;5.150;2022-10-31T02:42:33;98476.06;;;11.24;100.00
36726;BME280;44936;52.086;5.150;2022-10-31T02:45:19;98494.94;;;11.33;100.00
36726;BME280;44936;52.086;5.150;2022-10-31T02:47:48;98475.19;;;11.23;100.00
36726;BME280;44936;52.086;5.150;2022-10-31T02:50:29;98493.31;;;11.29;100.00
36726;BME280;44936;52.086;5.150;2022-10-31T02:52:56;98477.81;;;11.23;100.00
36726;BME280;44936;52.086;5.150;2022-10-31T02:57:53;98466.34;;;11.26;100.00
36726;BME280;44936;52.086;5.150;2022-10-31T03:00:20;98423.16;;;11.11;100.00
36726;BME280;44936;52.086;5.150;2022-10-31T03:10:55;98334.06;;;10.86;100.00
36726;BME280;44936;52.086;5.150;2022-10-31T03:13:38;98334.69;;;10.93;100.00
36726;BME280;44936;52.086;5.150;2022-10-31T03:21:49;98320.78;;;11.13;100.00
36726;BME280;44936;52.086;5.150;2022-10-31T03:24:22;98286.69;;;11.13;100.00
36726;BME280;44936;52.086;5.150;2022-10-31T03:26:53;98245.47;;;10.94;100.00
36726;BME280;44936;52.086;5.150;2022-10-31T03:29:26;98190.09;;;10.80;100.00
36726;BME280;44936;52.086;5.150;2022-10-31T03:32:00;98226.50;;;11.10;100.00
36726;BME280;44936;52.086;5.150;2022-10-31T03:34:35;98147.25;;;10.81;100.00
36726;BME280;44936;52.086;5.150;2022-10-31T03:37:04;98137.47;;;10.85;100.00
36726;BME280;44936;52.086;5.150;2022-10-31T03:39:34;98164.69;;;11.02;100.00
36726;BME280;44936;52.086;5.150;2022-10-31T03:42:10;98173.72;;;10.95;100.00
36726;BME280;44936;52.086;5.150;2022-10-31T03:44:41;98111.00;;;10.69;100.00
36726;BME280;44936;52.086;5.150;2022-10-31T03:47:08;98109.28;;;10.69;100.00
36726;BME280;44936;52.086;5.150;2022-10-31T03:49:34;98120.63;;;10.70;100.00
36726;BME280;44936;52.086;5.150;2022-10-31T03:54:45;98099.50;;;10.73;100.00
36726;BME280;44936;52.086;5.150;2022-10-31T03:57:41;98134.34;;;10.97;100.00
36726;BME280;44936;52.086;5.150;2022-10-31T04:00:11;98068.19;;;10.70;100.00
36726;BME280;44936;52.086;5.150;2022-10-31T04:02:53;98057.16;;;10.82;100.00
36726;BME280;44936;52.086;5.150;2022-10-31T04:05:21;98067.00;;;10.97;100.00
36726;BME280;44936;52.086;5.150;2022-10-31T04:07:50;98021.13;;;10.87;100.00
36726;BME280;44936;52.086;5.150;2022-10-31T04:10:18;98023.47;;;10.93;100.00
36726;BME280;44936;52.086;5.150;2022-10-31T04:12:48;97997.66;;;10.84;100.00
36726;BME280;44936;52.086;5.150;2022-10-31T04:15:26;98012.13;;;10.93;100.00
36726;BME280;44936;52.086;5.150;2022-10-31T04:17:56;97944.31;;;10.65;100.00
36726;BME280;44936;52.086;5.150;2022-10-31T04:20:34;97935.59;;;10.64;100.00
36726;BME280;44936;52.086;5.150;2022-10-31T04:23:08;97950.84;;;10.75;100.00
36726;BME280;44936;52.086;5.150;2022-10-31T04:25:39;97943.91;;;10.74;100.00
36726;BME280;44936;52.086;5.150;2022-10-31T04:28:07;97918.25;;;10.62;100.00
36726;BME280;44936;52.086;5.150;2022-10-31T04:30:33;97930.34;;;10.64;100.00
36726;BME280;44936;52.086;5.150;2022-10-31T04:33:04;97895.09;;;10.51;100.00
36726;BME280;44936;52.086;5.150;2022-10-31T04:35:32;97892.38;;;10.54;100.00
36726;BME280;44936;52.086;5.150;2022-10-31T04:37:58;97896.44;;;10.61;100.00
36726;BME280;44936;52.086;5.150;2022-10-31T04:40:24;97909.25;;;10.67;100.00
36726;BME280;44936;52.086;5.150;2022-10-31T04:42:49;97870.03;;;10.45;100.00
36726;BME280;44936;52.086;5.150;2022-10-31T04:45:18;97918.47;;;10.76;100.00
36726;BME280;44936;52.086;5.150;2022-10-31T04:47:44;97844.09;;;10.39;100.00
36726;BME280;44936;52.086;5.150;2022-10-31T04:50:10;97896.72;;;10.74;100.00
36726;BME280;44936;52.086;5.150;2022-10-31T04:52:47;97848.34;;;10.42;100.00
36726;BME280;44936;52.086;5.150;2022-10-31T04:55:13;97839.59;;;10.43;100.00
36726;BME280;44936;52.086;5.150;2022-10-31T04:57:47;97893.84;;;10.60;100.00
36726;BME280;44936;52.086;5.150;2022-10-31T05:00:18;97879.13;;;10.57;100.00
36726;BME280;44936;52.086;5.150;2022-10-31T05:02:49;97881.03;;;10.54;100.00
36726;BME280;44936;52.086;5.150;2022-10-31T05:05:20;97860.59;;;10.41;100.00
36726;BME280;44936;52.086;5.150;2022-10-31T05:07:52;97880.75;;;10.60;100.00
36726;BME280;44936;52.086;5.150;2022-10-31T05:10:27;97916.00;;;10.73;100.00
36726;BME280;44936;52.086;5.150;2022-10-31T05:13:00;97850.00;;;10.44;100.00
36726;BME280;44936;52.086;5.150;2022-10-31T05:15:27;97883.25;;;10.63;100.00
36726;BME280;44936;52.086;5.150;2022-10-31T05:18:07;97851.91;;;10.60;100.00
36726;BME280;44936;52.086;5.150;2022-10-31T05:20:49;97821.03;;;10.47;100.00
36726;BME280;44936;52.086;5.150;2022-10-31T05:23:20;97847.34;;;10.65;100.00
36726;BME280;44936;52.086;5.150;2022-10-31T05:25:55;97801.56;;;10.34;100.00
36726;BME280;44936;52.086;5.150;2022-10-31T05:28:29;97810.97;;;10.38;100.00
36726;BME280;44936;52.086;5.150;2022-10-31T05:30:55;97811.03;;;10.37;100.00
36726;BME280;44936;52.086;5.150;2022-10-31T05:33:25;97836.91;;;10.63;100.00
36726;BME280;44936;52.086;5.150;2022-10-31T05:35:53;97822.19;;;10.61;100.00
36726;BME280;44936;52.086;5.150;2022-10-31T05:38:19;97764.47;;;10.43;100.00
36726;BME280;44936;52.086;5.150;2022-10-31T05:40:53;97761.25;;;10.37;100.00
36726;BME280;44936;52.086;5.150;2022-10-31T05:43:27;97773.94;;;10.65;100.00
36726;BME280;44936;52.086;5.150;2022-10-31T05:45:57;97746.97;;;10.63;100.00
36726;BME280;44936;52.086;5.150;2022-10-31T05:48:24;97756.16;;;10.71;100.00
36726;BME280;44936;52.086;5.150;2022-10-31T05:50:55;97696.53;;;10.39;100.00
36726;BME280;44936;52.086;5.150;2022-10-31T05:53:22;97711.72;;;10.68;100.00
36726;BME280;44936;52.086;5.150;2022-10-31T05:55:53;97638.97;;;10.37;100.00
36726;BME280;44936;52.086;5.150;2022-10-31T05:58:21;97662.09;;;10.65;100.00
36726;BME280;44936;52.086;5.150;2022-10-31T06:00:51;97650.69;;;10.66;100.00
36726;BME280;44936;52.086;5.150;2022-10-31T06:03:20;97585.72;;;10.37;100.00
36726;BME280;44936;52.086;5.150;2022-10-31T06:05:46;97576.22;;;10.53;100.00
36726;BME280;44936;52.086;5.150;2022-10-31T06:08:13;97539.44;;;10.37;100.00
36726;BME280;44936;52.086;5.150;2022-10-31T06:10:40;97524.19;;;10.45;100.00
36726;BME280;44936;52.086;5.150;2022-10-31T06:13:06;97494.59;;;10.43;100.00
36726;BME280;44936;52.086;5.150;2022-10-31T06:15:35;97532.81;;;10.82;100.00
36726;BME280;44936;52.086;5.150;2022-10-31T06:18:05;97480.09;;;10.54;100.00
36726;BME280;44936;52.086;5.150;2022-10-31T06:20:34;97484.50;;;10.53;100.00
36726;BME280;44936;52.086;5.150;2022-10-31T06:23:18;97506.16;;;10.57;100.00
36726;BME280;44936;52.086;5.150;2022-10-31T06:25:50;97559.94;;;10.64;100.00
36726;BME280;44936;52.086;5.150;2022-10-31T06:28:23;97634.88;;;10.68;100.00
36726;BME280;44936;52.086;5.150;2022-10-31T06:30:54;97705.44;;;10.72;100.00
36726;BME280;44936;52.086;5.150;2022-10-31T06:33:25;97772.59;;;10.75;100.00
36726;BME280;44936;52.086;5.150;2022-10-31T08:02:08;98998.03;;;11.89;100.00
36726;BME280;44936;52.086;5.150;2022-10-31T13:53:20;99153.16;;;15.87;100.00
36726;BME280;44936;52.086;5.150;2022-10-31T13:55:48;99140.81;;;15.88;100.00
36726;BME280;44936;52.086;5.150;2022-10-31T13:58:28;99148.66;;;15.89;100.00
36726;BME280;44936;52.086;5.150;2022-10-31T14:03:37;99141.41;;;15.94;100.00
36726;BME280;44936;52.086;5.150;2022-10-31T14:06:04;99154.03;;;15.88;100.00
36726;BME280;44936;52.086;5.150;2022-10-31T14:08:35;99147.47;;;15.96;100.00
36726;BME280;44936;52.086;5.150;2022-10-31T14:11:03;99126.31;;;15.96;100.00
36726;BME280;44936;52.086;5.150;2022-10-31T14:13:37;99115.09;;;15.91;100.00
36726;BME280;44936;52.086;5.150;2022-10-31T14:16:20;99126.53;;;15.92;100.00
36726;BME280;44936;52.086;5.150;2022-10-31T14:19:01;99131.38;;;15.82;100.00
36726;BME280;44936;52.086;5.150;2022-10-31T14:21:35;99138.38;;;15.83;100.00
36726;BME280;44936;52.086;5.150;2022-10-31T14:26:58;99106.44;;;15.88;100.00
36726;BME280;44936;52.086;5.150;2022-10-31T14:29:28;99088.78;;;15.88;100.00
36726;BME280;44936;52.086;5.150;2022-10-31T14:34:36;99101.31;;;15.84;100.00
36726;BME280;44936;52.086;5.150;2022-10-31T16:50:34;98745.91;;;14.83;100.00
36726;BME280;44936;52.086;5.150;2022-10-31T17:03:46;98703.38;;;14.53;100.00
36726;BME280;44936;52.086;5.150;2022-10-31T17:06:15;98712.22;;;14.52;100.00
36726;BME280;44936;52.086;5.150;2022-10-31T17:08:41;98751.94;;;14.68;100.00
36726;BME280;44936;52.086;5.150;2022-10-31T17:11:15;98739.34;;;14.73;100.00
36726;BME280;44936;52.086;5.150;2022-10-31T17:13:44;98744.13;;;14.65;100.00
36726;BME280;44936;52.086;5.150;2022-10-31T17:16:18;98726.75;;;14.61;100.00
36726;BME280;44936;52.086;5.150;2022-10-31T17:18:46;98690.56;;;14.44;100.00
36726;BME280;44936;52.086;5.150;2022-10-31T17:21:20;98723.38;;;14.57;100.00
36726;BME280;44936;52.086;5.150;2022-10-31T17:23:50;98689.47;;;14.50;100.00
36726;BME280;44936;52.086;5.150;2022-10-31T17:26:16;98673.66;;;14.50;100.00
36726;BME280;44936;52.086;5.150;2022-10-31T17:28:45;98659.72;;;14.27;100.00
36726;BME280;44936;52.086;5.150;2022-10-31T17:31:23;98676.63;;;14.61;100.00
36726;BME280;44936;52.086;5.150;2022-10-31T17:33:54;98618.31;;;14.29;100.00
36726;BME280;44936;52.086;5.150;2022-10-31T17:36:20;98628.72;;;14.32;100.00
36726;BME280;44936;52.086;5.150;2022-10-31T17:38:46;98641.28;;;14.46;100.00
36726;BME280;44936;52.086;5.150;2022-10-31T17:41:14;98605.00;;;14.32;100.00
36726;BME280;44936;52.086;5.150;2022-10-31T17:43:40;98583.41;;;14.24;100.00
36726;BME280;44936;52.086;5.150;2022-10-31T17:46:22;98569.41;;;14.22;100.00
36726;BME280;44936;52.086;5.150;2022-10-31T17:48:56;98558.88;;;14.22;100.00
36726;BME280;44936;52.086;5.150;2022-10-31T17:51:31;98570.00;;;14.29;100.00
36726;BME280;44936;52.086;5.150;2022-10-31T17:53:57;98545.25;;;14.14;100.00
36726;BME280;44936;52.086;5.150;2022-10-31T17:56:42;98545.06;;;14.17;100.00
36726;BME280;44936;52.086;5.150;2022-10-31T17:59:08;98547.16;;;14.10;100.00
36726;BME280;44936;52.086;5.150;2022-10-31T18:01:36;98537.31;;;14.14;100.00
36726;BME280;44936;52.086;5.150;2022-10-31T18:04:03;98536.31;;;14.16;100.00
36726;BME280;44936;52.086;5.150;2022-10-31T18:06:32;98576.59;;;14.37;100.00
36726;BME280;44936;52.086;5.150;2022-10-31T18:09:03;98572.94;;;14.40;100.00
36726;BME280;44936;52.086;5.150;2022-10-31T18:11:54;98535.75;;;14.10;100.00
36726;BME280;44936;52.086;5.150;2022-10-31T18:14:33;98588.09;;;14.36;100.00
36726;BME280;44936;52.086;5.150;2022-10-31T18:17:05;98550.19;;;14.20;100.00
36726;BME280;44936;52.086;5.150;2022-10-31T18:19:53;98564.34;;;14.36;100.00
36726;BME280;44936;52.086;5.150;2022-10-31T18:22:22;98543.84;;;14.24;100.00
36726;BME280;44936;52.086;5.150;2022-10-31T18:24:50;98516.72;;;14.03;100.00
36726;BME280;44936;52.086;5.150;2022-10-31T18:27:17;98491.38;;;14.01;100.00
36726;BME280;44936;52.086;5.150;2022-10-31T18:29:43;98508.47;;;14.11;100.00
36726;BME280;44936;52.086;5.150;2022-10-31T18:32:48;98528.81;;;14.26;100.00
36726;BME280;44936;52.086;5.150;2022-10-31T18:35:19;98546.56;;;14.23;100.00
36726;BME280;44936;52.086;5.150;2022-10-31T18:37:49;98526.41;;;14.03;100.00
36726;BME280;44936;52.086;5.150;2022-10-31T18:40:25;98547.72;;;14.17;100.00
36726;BME280;44936;52.086;5.150;2022-10-31T18:42:58;98517.25;;;13.93;100.00
36726;BME280;44936;52.086;5.150;2022-10-31T18:45:33;98546.78;;;14.18;100.00
36726;BME280;44936;52.086;5.150;2022-10-31T18:48:19;98484.78;;;13.92;100.00
36726;BME280;44936;52.086;5.150;2022-10-31T18:50:45;98489.28;;;13.90;100.00
36726;BME280;44936;52.086;5.150;2022-10-31T18:53:14;98544.06;;;14.20;100.00
36726;BME280;44936;52.086;5.150;2022-10-31T18:55:41;98520.38;;;14.01;100.00
36726;BME280;44936;52.086;5.150;2022-10-31T18:58:07;98562.59;;;14.18;100.00
36726;BME280;44936;52.086;5.150;2022-10-31T19:00:39;98514.63;;;13.93;100.00
36726;BME280;44936;52.086;5.150;2022-10-31T19:03:22;98541.31;;;14.04;100.00
36726;BME280;44936;52.086;5.150;2022-10-31T19:05:53;98557.94;;;14.06;100.00
36726;BME280;44936;52.086;5.150;2022-10-31T19:08:29;98571.59;;;14.14;100.00
36726;BME280;44936;52.086;5.150;2022-10-31T19:14:04;98579.63;;;14.11;100.00
36726;BME280;44936;52.086;5.150;2022-10-31T19:16:38;98556.00;;;13.91;100.00
36726;BME280;44936;52.086;5.150;2022-10-31T19:19:07;98593.59;;;14.13;100.00
36726;BME280;44936;52.086;5.150;2022-10-31T19:21:36;98588.47;;;14.10;100.00
36726;BME280;44936;52.086;5.150;2022-10-31T19:24:12;98565.25;;;13.99;100.00
36726;BME280;44936;52.086;5.150;2022-10-31T19:26:46;98574.94;;;13.99;100.00
36726;BME280;44936;52.086;5.150;2022-10-31T19:29:12;98549.47;;;13.80;100.00
36726;BME280;44936;52.086;5.150;2022-10-31T19:31:40;98588.25;;;13.96;100.00
36726;BME280;44936;52.086;5.150;2022-10-31T19:34:10;98553.88;;;13.80;100.00
36726;BME280;44936;52.086;5.150;2022-10-31T19:36:45;98604.72;;;14.01;100.00
36726;BME280;44936;52.086;5.150;2022-10-31T19:39:18;98579.50;;;13.76;100.00
36726;BME280;44936;52.086;5.150;2022-10-31T19:41:43;98627.44;;;14.03;100.00
36726;BME280;44936;52.086;5.150;2022-10-31T19:44:22;98561.19;;;13.73;100.00
36726;BME280;44936;52.086;5.150;2022-10-31T19:47:00;98579.16;;;13.84;100.00
36726;BME280;44936;52.086;5.150;2022-10-31T19:49:26;98631.16;;;13.99;100.00
36726;BME280;44936;52.086;5.150;2022-10-31T19:51:52;98593.00;;;13.69;100.00
36726;BME280;44936;52.086;5.150;2022-10-31T19:54:22;98639.25;;;13.95;100.00
36726;BME280;44936;52.086;5.150;2022-10-31T19:56:55;98599.38;;;13.83;100.00
36726;BME280;44936;52.086;5.150;2022-10-31T19:59:24;98582.84;;;13.80;100.00
36726;BME280;44936;52.086;5.150;2022-10-31T20:01:53;98565.88;;;13.67;100.00
36726;BME280;44936;52.086;5.150;2022-10-31T20:04:24;98560.13;;;13.77;100.00
36726;BME280;44936;52.086;5.150;2022-10-31T20:06:53;98561.81;;;13.59;100.00
36726;BME280;44936;52.086;5.150;2022-10-31T20:09:21;98615.19;;;13.83;100.00
36726;BME280;44936;52.086;5.150;2022-10-31T20:11:48;98625.09;;;13.78;100.00
36726;BME280;44936;52.086;5.150;2022-10-31T20:14:19;98602.19;;;13.60;100.00
36726;BME280;44936;52.086;5.150;2022-10-31T20:16:47;98598.78;;;13.58;100.00
36726;BME280;44936;52.086;5.150;2022-10-31T20:19:20;98590.25;;;13.53;100.00
36726;BME280;44936;52.086;5.150;2022-10-31T20:21:46;98621.94;;;13.70;100.00
36726;BME280;44936;52.086;5.150;2022-10-31T20:24:20;98569.78;;;13.58;100.00
36726;BME280;44936;52.086;5.150;2022-10-31T20:26:55;98611.97;;;13.77;100.00
36726;BME280;44936;52.086;5.150;2022-10-31T20:29:32;98600.94;;;13.87;100.00
36726;BME280;44936;52.086;5.150;2022-10-31T20:32:04;98596.38;;;13.72;100.00
36726;BME280;44936;52.086;5.150;2022-10-31T20:34:38;98645.88;;;13.84;100.00
36726;BME280;44936;52.086;5.150;2022-10-31T20:37:09;98599.06;;;13.52;100.00
36726;BME280;44936;52.086;5.150;2022-10-31T20:39:40;98631.97;;;13.62;100.00
36726;BME280;44936;52.086;5.150;2022-10-31T20:42:07;98637.75;;;13.70;100.00
36726;BME280;44936;52.086;5.150;2022-10-31T20:44:33;98672.56;;;13.77;100.00
36726;BME280;44936;52.086;5.150;2022-10-31T20:47:06;98668.28;;;13.74;100.00
36726;BME280;44936;52.086;5.150;2022-10-31T20:49:40;98654.75;;;13.63;100.00
36726;BME280;44936;52.086;5.150;2022-10-31T20:52:06;98661.66;;;13.66;100.00
36726;BME280;44936;52.086;5.150;2022-10-31T20:54:37;98635.53;;;13.61;100.00
36726;BME280;44936;52.086;5.150;2022-10-31T20:57:10;98652.97;;;13.64;100.00
36726;BME280;44936;52.086;5.150;2022-10-31T20:59:38;98652.38;;;13.57;100.00
36726;BME280;44936;52.086;5.150;2022-10-31T21:02:04;98675.41;;;13.72;100.00
36726;BME280;44936;52.086;5.150;2022-10-31T21:04:29;98684.63;;;13.82;100.00
36726;BME280;44936;52.086;5.150;2022-10-31T21:06:57;98667.00;;;13.64;100.00
36726;BME280;44936;52.086;5.150;2022-10-31T21:09:25;98651.84;;;13.49;100.00
36726;BME280;44936;52.086;5.150;2022-10-31T21:11:53;98647.50;;;13.48;100.00
36726;BME280;44936;52.086;5.150;2022-10-31T21:14:25;98688.25;;;13.80;100.00
36726;BME280;44936;52.086;5.150;2022-10-31T21:17:16;98657.31;;;13.65;100.00
36726;BME280;44936;52.086;5.150;2022-10-31T21:19:58;98636.84;;;13.51;100.00
36726;BME280;44936;52.086;5.150;2022-10-31T21:22:39;98651.13;;;13.45;100.00
36726;BME280;44936;52.086;5.150;2022-10-31T21:25:21;98703.09;;;13.62;100.00
36726;BME280;44936;52.086;5.150;2022-10-31T21:27:58;98724.69;;;13.70;100.00
36726;BME280;44936;52.086;5.150;2022-10-31T21:30:53;98689.25;;;13.37;100.00
36726;BME280;44936;52.086;5.150;2022-10-31T21:33:21;98685.84;;;13.35;100.00
36726;BME280;44936;52.086;5.150;2022-10-31T21:35:49;98707.53;;;13.40;100.00
36726;BME280;44936;52.086;5.150;2022-10-31T21:38:15;98743.31;;;13.66;100.00
36726;BME280;44936;52.086;5.150;2022-10-31T21:40:41;98729.53;;;13.59;100.00
36726;BME280;44936;52.086;5.150;2022-10-31T21:43:07;98688.72;;;13.28;100.00
36726;BME280;44936;52.086;5.150;2022-10-31T21:45:34;98732.06;;;13.62;100.00
36726;BME280;44936;52.086;5.150;2022-10-31T21:48:00;98699.00;;;13.35;100.00
36726;BME280;44936;52.086;5.150;2022-10-31T21:50:26;98727.03;;;13.56;100.00
36726;BME280;44936;52.086;5.150;2022-10-31T21:52:55;98702.34;;;13.38;100.00
36726;BME280;44936;52.086;5.150;2022-10-31T21:55:23;98730.06;;;13.67;100.00
36726;BME280;44936;52.086;5.150;2022-10-31T21:58:05;98707.41;;;13.43;100.00
36726;BME280;44936;52.086;5.150;2022-10-31T22:00:31;98695.25;;;13.40;100.00
36726;BME280;44936;52.086;5.150;2022-10-31T22:03:02;98707.53;;;13.40;100.00
36726;BME280;44936;52.086;5.150;2022-10-31T22:05:28;98747.34;;;13.54;100.00
36726;BME280;44936;52.086;5.150;2022-10-31T22:07:55;98745.47;;;13.56;100.00
36726;BME280;44936;52.086;5.150;2022-10-31T22:10:21;98724.28;;;13.39;100.00
36726;BME280;44936;52.086;5.150;2022-10-31T22:12:46;98747.00;;;13.62;100.00
36726;BME280;44936;52.086;5.150;2022-10-31T22:15:12;98775.53;;;13.72;100.00
36726;BME280;44936;52.086;5.150;2022-10-31T22:17:39;98738.28;;;13.59;100.00
36726;BME280;44936;52.086;5.150;2022-10-31T22:20:05;98716.06;;;13.46;100.00
36726;BME280;44936;52.086;5.150;2022-10-31T22:22:33;98729.00;;;13.51;100.00
36726;BME280;44936;52.086;5.150;2022-10-31T22:25:01;98718.63;;;13.48;100.00
36726;BME280;44936;52.086;5.150;2022-10-31T22:27:28;98739.38;;;13.55;100.00
36726;BME280;44936;52.086;5.150;2022-10-31T22:29:55;98743.56;;;13.59;100.00
36726;BME280;44936;52.086;5.150;2022-10-31T22:32:22;98728.53;;;13.41;100.00
36726;BME280;44936;52.086;5.150;2022-10-31T22:34:52;98762.00;;;13.59;100.00
36726;BME280;44936;52.086;5.150;2022-10-31T22:37:17;98795.47;;;13.78;100.00
36726;BME280;44936;52.086;5.150;2022-10-31T22:39:43;98738.44;;;13.56;100.00
36726;BME280;44936;52.086;5.150;2022-10-31T22:42:09;98740.69;;;13.66;100.00
36726;BME280;44936;52.086;5.150;2022-10-31T22:44:37;98716.50;;;13.56;100.00
36726;BME280;44936;52.086;5.150;2022-10-31T22:47:02;98749.56;;;13.83;100.00
36726;BME280;44936;52.086;5.150;2022-10-31T22:52:38;98711.75;;;13.84;100.00
36726;BME280;44936;52.086;5.150;2022-10-31T22:55:21;98671.00;;;13.73;100.00
36726;BME280;44936;52.086;5.150;2022-10-31T22:57:48;98654.44;;;13.69;100.00
36726;BME280;44936;52.086;5.150;2022-10-31T23:00:19;98642.50;;;13.62;100.00
36726;BME280;44936;52.086;5.150;2022-10-31T23:02:50;98603.59;;;13.48;100.00
36726;BME280;44936;52.086;5.150;2022-10-31T23:05:40;98621.88;;;13.72;100.00
36726;BME280;44936;52.086;5.150;2022-10-31T23:08:12;98574.69;;;13.47;100.00
36726;BME280;44936;52.086;5.150;2022-10-31T23:10:47;98603.50;;;13.70;100.00
